Time;durP1;ratioP1;P1;durP2;ratioP2;P2;SDS_P1;SDS_P2;PMS_P1;PMS_P2;Temp;Humidity;BMP_temperature;BMP_pressure;BME280_temperature;BME280_humidity;BME280_pressure;Samples;Min_cycle;Max_cycle;Signal;HPM_P1;HPM_P2
2022/11/11 00:00:44;;;;;;;16.77;13.43;;;;;;;15.55;56.60;102747.41;1662217;86;21021;-52
2022/11/11 00:03:29;;;;;;;15.95;12.75;;;;;;;15.52;56.72;102742.18;1652533;87;21049;-52
2022/11/11 00:06:15;;;;;;;17.70;12.60;;;;;;;15.50;56.50;102749.20;1652814;87;21539;-52
2022/11/11 00:09:02;;;;;;;13.38;11.97;;;;;;;15.46;56.32;102744.87;1647583;87;21064;-52
2022/11/11 00:11:48;;;;;;;15.48;12.20;;;;;;;15.42;56.26;102748.37;1648565;87;21077;-53
2022/11/11 00:14:34;;;;;;;16.20;12.20;;;;;;;15.39;56.00;102744.03;1649770;87;21067;-52
2022/11/11 00:26:35;;;;;;;14.00;10.93;;;;;;;15.19;54.10;102740.73;1683663;83;21499;-52
2022/11/11 00:29:20;;;;;;;12.03;10.58;;;;;;;15.11;53.98;102741.69;1680524;83;21042;-52
2022/11/11 00:32:23;;;;;;;11.90;10.48;;;;;;;15.01;53.99;102735.66;1689847;84;21039;-51
2022/11/11 00:41:19;;;;;;;14.15;10.40;;;;;;;14.80;54.11;102732.33;1657886;85;21079;-52
2022/11/11 00:44:04;;;;;;;14.87;11.05;;;;;;;14.75;54.16;102727.16;1670603;85;21037;-52
2022/11/11 00:52:57;;;;;;;13.62;11.33;;;;;;;14.64;54.20;102727.23;1689291;83;21630;-52
2022/11/11 00:55:43;;;;;;;14.60;10.95;;;;;;;14.61;53.90;102723.30;1702649;83;21518;-51
2022/11/11 00:58:29;;;;;;;13.35;11.30;;;;;;;14.58;53.88;102720.72;1663151;85;21088;-51
2022/11/11 01:01:15;;;;;;;16.30;11.60;;;;;;;14.56;53.97;102721.17;1667738;85;21579;-51
2022/11/11 01:04:00;;;;;;;16.90;11.85;;;;;;;14.53;53.91;102723.80;1667288;85;21045;-52
2022/11/11 01:06:45;;;;;;;14.28;11.43;;;;;;;14.51;54.11;102724.25;1661895;86;21528;-51
2022/11/11 01:09:31;;;;;;;13.85;10.58;;;;;;;14.48;54.39;102724.30;1653388;85;21057;-51
2022/11/11 01:12:16;;;;;;;13.93;12.13;;;;;;;14.46;54.68;102729.10;1686116;83;21090;-52
2022/11/11 01:15:01;;;;;;;16.25;11.48;;;;;;;14.45;55.07;102724.30;1669444;85;21048;-52
2022/11/11 01:17:48;;;;;;;15.13;11.28;;;;;;;14.45;55.64;102715.13;1695513;83;21031;-52
2022/11/11 01:20:36;;;;;;;13.58;10.75;;;;;;;14.46;55.85;102718.63;1668194;85;21515;-52
2022/11/11 01:23:22;;;;;;;13.70;11.03;;;;;;;14.47;56.09;102713.37;1674195;85;21110;-51
2022/11/11 01:26:15;;;;;;;15.15;10.15;;;;;;;14.49;56.16;102718.59;1671404;85;21513;-51
2022/11/11 01:29:00;;;;;;;11.50;8.75;;;;;;;14.50;56.07;102719.91;1614836;88;21065;-52
2022/11/11 01:31:45;;;;;;;9.48;8.13;;;;;;;14.53;56.44;102722.92;1598434;88;21082;-53
2022/11/11 01:34:29;;;;;;;10.63;9.38;;;;;;;14.56;56.88;102724.23;1599484;89;21598;-52
2022/11/11 01:37:16;;;;;;;11.12;8.70;;;;;;;14.57;56.92;102724.64;1568023;90;21082;-51
2022/11/11 01:40:02;;;;;;;8.35;6.70;;;;;;;14.60;56.90;102724.63;1590076;87;21222;-52
2022/11/11 01:43:06;;;;;;;6.80;6.08;;;;;;;14.62;57.38;102717.20;1570536;90;21067;-52
2022/11/11 01:45:59;;;;;;;5.85;5.25;;;;;;;14.61;57.92;102708.89;1592388;88;21553;-53
2022/11/11 01:52:15;;;;;;;7.35;5.47;;;;;;;14.61;58.55;102706.27;1587837;89;21103;-52
2022/11/11 01:55:13;;;;;;;8.23;6.30;;;;;;;14.62;58.63;102708.46;1593078;89;21077;-53
2022/11/11 01:58:02;;;;;;;7.58;5.97;;;;;;;14.66;58.59;102698.39;1597281;89;21060;-53
2022/11/11 02:00:47;;;;;;;7.80;5.75;;;;;;;14.66;58.65;102707.56;1582207;89;21109;-52
2022/11/11 02:03:36;;;;;;;7.10;6.00;;;;;;;14.66;58.71;102703.63;1592094;89;21126;-52
2022/11/11 02:06:22;;;;;;;8.80;6.53;;;;;;;14.65;58.80;102702.75;1586990;89;21070;-52
2022/11/11 02:09:07;;;;;;;7.78;6.50;;;;;;;14.62;58.89;102697.55;1590324;89;22052;-53
2022/11/11 02:14:59;;;;;;;9.05;7.15;;;;;;;14.61;59.00;102704.97;1583817;89;21187;-52
2022/11/11 02:17:47;;;;;;;8.98;7.20;;;;;;;14.62;59.06;102702.79;1549187;91;21134;-54
2022/11/11 02:20:39;;;;;;;9.73;6.85;;;;;;;14.63;59.15;102707.59;1568246;90;21139;-54
2022/11/11 02:23:38;;;;;;;8.58;6.65;;;;;;;14.66;59.14;102711.48;1535030;89;21147;-52
2022/11/11 02:26:23;;;;;;;7.83;7.03;;;;;;;14.69;59.16;102718.88;1567106;91;21151;-52
2022/11/11 02:29:13;;;;;;;8.55;6.55;;;;;;;14.72;59.20;102710.56;1588523;89;21067;-54
2022/11/11 02:31:58;;;;;;;6.33;5.62;;;;;;;14.73;59.31;102713.63;1569112;90;21034;-53
2022/11/11 02:34:44;;;;;;;7.47;6.40;;;;;;;14.73;59.52;102714.94;1559554;90;21072;-53
2022/11/11 02:37:30;;;;;;;8.05;6.45;;;;;;;14.75;59.54;102707.93;1566659;90;21085;-53
2022/11/11 02:40:32;;;;;;;9.33;7.15;;;;;;;14.78;59.65;102711.39;1560382;91;21154;-53
2022/11/11 02:43:18;;;;;;;7.55;6.30;;;;;;;14.78;59.90;102713.12;1572983;91;21113;-53
2022/11/11 02:46:04;;;;;;;7.87;6.85;;;;;;;14.78;59.93;102716.62;1589018;88;21126;-53
2022/11/11 02:48:49;;;;;;;6.45;5.85;;;;;;;14.76;60.15;102716.20;1570803;89;21240;-53
2022/11/11 02:51:34;;;;;;;8.98;6.25;;;;;;;14.77;60.23;102712.28;1583303;89;21553;-54
2022/11/11 02:54:19;;;;;;;8.45;5.42;;;;;;;14.81;60.30;102710.50;1576520;90;21079;-53
2022/11/11 02:57:07;;;;;;;5.42;4.92;;;;;;;14.83;60.38;102712.66;1572993;91;21112;-53
2022/11/11 02:59:53;;;;;;;4.53;4.12;;;;;;;14.86;60.35;102716.59;1572786;90;21064;-53
2022/11/11 03:02:39;;;;;;;4.80;4.40;;;;;;;14.92;60.32;102720.47;1556111;90;21637;-54
2022/11/11 03:05:24;;;;;;;6.75;6.10;;;;;;;14.94;60.29;102722.63;1553470;90;21151;-53
2022/11/11 03:08:10;;;;;;;10.50;8.03;;;;;;;14.95;60.15;102721.30;1573294;90;21094;-53
2022/11/11 03:10:55;;;;;;;10.08;8.70;;;;;;;14.93;60.14;102723.50;1585904;89;21067;-53
2022/11/11 03:13:40;;;;;;;9.08;8.05;;;;;;;14.91;60.17;102718.70;1583464;89;21122;-53
2022/11/11 03:19:13;;;;;;;8.38;6.90;;;;;;;14.89;60.40;102717.42;1610033;88;21194;-53
2022/11/11 03:22:00;;;;;;;7.05;5.85;;;;;;;14.92;60.45;102719.16;1603916;87;21176;-53
2022/11/11 03:27:49;;;;;;;6.80;5.47;;;;;;;14.97;60.63;102716.91;1604312;88;21110;-53
2022/11/11 03:30:34;;;;;;;7.25;5.50;;;;;;;15.01;60.64;102712.06;1610929;88;21171;-54
2022/11/11 03:33:19;;;;;;;6.28;5.20;;;;;;;15.06;60.60;102714.66;1608347;88;21110;-54
2022/11/11 03:36:06;;;;;;;6.17;5.15;;;;;;;15.11;60.52;102713.72;1635166;86;21081;-53
2022/11/11 03:38:51;;;;;;;6.83;5.40;;;;;;;15.15;60.49;102715.86;1636084;87;21114;-52
2022/11/11 03:41:36;;;;;;;5.75;5.22;;;;;;;15.16;60.46;102715.87;1632829;86;21061;-54
2022/11/11 03:44:21;;;;;;;6.87;6.17;;;;;;;15.20;60.43;102710.14;1632743;87;21088;-53
2022/11/11 03:47:06;;;;;;;7.22;5.75;;;;;;;15.23;60.35;102713.59;1632083;86;21101;-56
2022/11/11 03:49:51;;;;;;;6.65;5.83;;;;;;;15.27;60.31;102709.21;1629667;87;21117;-53
2022/11/11 03:52:45;;;;;;;7.08;6.05;;;;;;;15.31;60.16;102709.61;1631712;87;21151;-53
2022/11/11 03:55:30;;;;;;;7.20;6.45;;;;;;;15.33;60.08;102724.88;1626135;87;21090;-53
2022/11/11 03:58:16;;;;;;;6.28;5.67;;;;;;;15.35;60.04;102716.09;1637332;86;21119;-53
2022/11/11 04:10:21;;;;;;;5.78;5.20;;;;;;;15.37;59.94;102717.41;1703888;83;21092;-53
2022/11/11 04:16:06;;;;;;;5.62;4.55;;;;;;;15.40;60.01;102718.67;1657718;85;22111;-53
2022/11/11 04:21:55;;;;;;;5.12;4.72;;;;;;;15.39;60.04;102737.94;1670522;85;21080;-54
2022/11/11 04:29:27;;;;;;;5.28;4.78;;;;;;;15.35;60.19;102725.73;1668341;85;21057;-53
2022/11/11 04:30:32;;;;;;;5.80;5.17;;;;;;;15.33;60.33;102730.12;1665845;85;21175;-54
2022/11/11 04:33:17;;;;;;;6.28;5.67;;;;;;;15.35;60.26;102733.61;1666584;85;21561;-54
2022/11/11 04:36:03;;;;;;;6.22;5.62;;;;;;;15.37;60.19;102735.30;1664848;85;21056;-54
2022/11/11 04:41:53;;;;;;;7.40;6.53;;;;;;;15.35;60.17;102743.62;1655755;85;21520;-54
2022/11/11 04:48:07;;;;;;;8.78;7.00;;;;;;;15.30;60.35;102751.13;1669774;85;21106;-53
2022/11/11 04:50:52;;;;;;;8.58;7.60;;;;;;;15.28;60.49;102750.27;1639357;86;21532;-53
2022/11/11 04:53:37;;;;;;;9.10;8.10;;;;;;;15.31;60.45;102755.50;1681567;84;21115;-53
2022/11/11 04:59:26;;;;;;;9.43;7.97;;;;;;;15.32;60.56;102754.17;1636091;86;21612;-53
2022/11/11 05:05:15;;;;;;;10.10;7.90;;;;;;;15.36;60.54;102760.25;1632981;86;21065;-53
2022/11/11 05:11:04;;;;;;;10.10;8.85;;;;;;;15.40;60.33;102766.77;1646939;85;21044;-53
2022/11/11 05:23:05;;;;;;;13.90;10.48;;;;;;;15.46;60.11;102792.09;1666879;85;22558;-53
2022/11/11 05:25:50;;;;;;;11.70;10.55;;;;;;;15.47;60.14;102793.85;1672421;85;21019;-54
2022/11/11 05:28:35;;;;;;;14.47;10.58;;;;;;;15.46;60.20;102794.72;1680439;83;21042;-53
2022/11/11 05:31:20;;;;;;;12.05;10.23;;;;;;;15.47;60.28;102796.48;1709090;83;21557;-53
2022/11/11 05:34:05;;;;;;;12.82;11.33;;;;;;;15.48;60.34;102791.64;1690965;83;21043;-53
2022/11/11 05:36:50;;;;;;;13.20;10.63;;;;;;;15.52;60.31;102797.28;1674985;84;21464;-52
2022/11/11 05:39:36;;;;;;;14.23;11.08;;;;;;;15.59;60.30;102804.66;1670995;85;21063;-52
2022/11/11 05:42:21;;;;;;;12.88;11.48;;;;;;;15.63;60.27;102804.61;1689783;83;21076;-52
2022/11/11 05:45:08;;;;;;;12.13;10.45;;;;;;;15.69;60.16;102818.98;1707162;83;21039;-53
2022/11/11 05:47:54;;;;;;;12.00;10.78;;;;;;;15.69;59.99;102815.05;1684063;83;21567;-53
2022/11/11 05:50:41;;;;;;;11.78;10.58;;;;;;;15.67;60.04;102820.76;1681388;85;21086;-53
2022/11/11 05:53:27;;;;;;;12.73;10.75;;;;;;;15.65;60.17;102819.91;1699736;84;21557;-52
2022/11/11 05:56:14;;;;;;;13.03;11.20;;;;;;;15.63;60.27;102825.61;1700130;82;21019;-53
2022/11/11 05:58:59;;;;;;;12.68;10.53;;;;;;;15.65;60.25;102825.16;1702482;83;21586;-53
2022/11/11 06:01:45;;;;;;;10.80;9.68;;;;;;;15.69;60.24;102824.67;1701316;83;21134;-54
2022/11/11 06:04:34;;;;;;;10.72;9.58;;;;;;;15.74;60.20;102822.45;1698665;83;21527;-53
2022/11/11 06:07:19;;;;;;;10.45;9.28;;;;;;;15.78;60.15;102820.22;1672949;85;21092;-53
2022/11/11 06:13:12;;;;;;;11.45;10.25;;;;;;;15.88;60.04;102824.91;1658738;83;21077;-52
2022/11/11 06:15:58;;;;;;;11.78;10.00;;;;;;;15.92;59.92;102829.24;1630543;86;21060;-53
2022/11/11 06:18:43;;;;;;;11.18;9.68;;;;;;;15.91;59.93;102823.11;1658464;85;21068;-53
2022/11/11 06:21:31;;;;;;;15.18;10.75;;;;;;;15.91;60.14;102830.99;1638427;85;21052;-53
2022/11/11 06:24:17;;;;;;;14.95;9.68;;;;;;;15.91;60.26;102833.62;1640285;86;21056;-53
2022/11/11 06:27:03;;;;;;;11.55;10.08;;;;;;;15.92;60.24;102840.63;1635300;87;21084;-53
2022/11/11 06:29:48;;;;;;;12.93;11.22;;;;;;;15.87;60.17;102831.91;1652656;87;21021;-52
2022/11/11 06:32:33;;;;;;;14.10;11.18;;;;;;;15.85;60.28;102833.69;1652996;87;21068;-53
2022/11/11 06:35:18;;;;;;;13.48;11.22;;;;;;;15.85;60.40;102823.19;1634986;87;21016;-52
2022/11/11 06:38:04;;;;;;;13.18;11.63;;;;;;;15.88;60.29;102820.54;1637225;87;21057;-52
2022/11/11 06:40:49;;;;;;;13.50;11.63;;;;;;;15.92;60.18;102828.81;1646445;85;21054;-53
2022/11/11 06:43:34;;;;;;;13.80;12.30;;;;;;;15.91;60.22;102830.99;1658895;85;21104;-53
2022/11/11 06:46:23;;;;;;;13.28;11.38;;;;;;;15.88;60.39;102829.73;1652780;86;21104;-52
2022/11/11 06:49:08;;;;;;;12.00;10.70;;;;;;;15.91;60.44;102830.99;1652799;87;21079;-52
2022/11/11 06:51:53;;;;;;;13.22;10.50;;;;;;;15.95;60.38;102830.53;1652605;87;21099;-53
2022/11/11 06:54:38;;;;;;;12.90;10.90;;;;;;;15.96;60.33;102838.83;1652785;87;21603;-52
2022/11/11 06:57:23;;;;;;;11.63;10.32;;;;;;;15.96;60.33;102846.27;1637043;87;21085;-52
2022/11/11 07:00:10;;;;;;;10.40;9.38;;;;;;;15.95;60.20;102853.70;1637984;86;21093;-52
2022/11/11 07:02:55;;;;;;;11.15;9.58;;;;;;;15.91;60.23;102847.21;1658973;85;22709;-52
2022/11/11 07:05:42;;;;;;;10.20;9.20;;;;;;;15.88;60.42;102849.42;1659773;85;21067;-52
2022/11/11 07:08:27;;;;;;;11.22;9.48;;;;;;;15.88;60.51;102852.48;1643296;86;21044;-52
2022/11/11 07:11:13;;;;;;;12.55;10.65;;;;;;;15.83;60.32;102855.14;1638702;87;21108;-52
2022/11/11 07:13:59;;;;;;;12.10;10.28;;;;;;;15.74;60.26;102850.45;1632139;86;21117;-52
2022/11/11 07:16:43;;;;;;;14.87;11.45;;;;;;;15.65;60.44;102850.52;1654710;86;21048;-53
2022/11/11 07:19:29;;;;;;;13.45;11.73;;;;;;;15.56;60.60;102852.78;1655189;85;21069;-52
2022/11/11 07:22:14;;;;;;;14.70;12.33;;;;;;;15.52;60.71;102863.34;1652123;85;21070;-52
2022/11/11 07:24:59;;;;;;;12.93;11.53;;;;;;;15.45;60.91;102858.59;1656356;85;21060;-52
2022/11/11 07:27:45;;;;;;;13.68;12.28;;;;;;;15.37;60.94;102858.59;1652730;87;21112;-52
2022/11/11 07:30:30;;;;;;;16.17;11.53;;;;;;;15.30;60.99;102858.67;1652524;87;21536;-52
2022/11/11 07:33:15;;;;;;;13.15;11.15;;;;;;;15.22;60.97;102860.48;1652769;87;21096;-53
2022/11/11 07:36:02;;;;;;;11.57;10.08;;;;;;;15.15;61.22;102864.02;1647040;87;21084;-52
2022/11/11 07:38:47;;;;;;;10.18;8.88;;;;;;;15.14;61.13;102868.84;1648354;87;21056;-52
2022/11/11 07:41:34;;;;;;;11.15;7.95;;;;;;;15.08;61.14;102868.89;1649863;87;21084;-53
2022/11/11 07:44:19;;;;;;;12.47;8.60;;;;;;;15.03;60.96;102870.66;1652712;87;21049;-52
2022/11/11 07:47:05;;;;;;;9.53;8.58;;;;;;;14.95;60.81;102867.22;1647442;85;21101;-52
2022/11/11 07:49:50;;;;;;;11.83;9.40;;;;;;;14.88;61.00;102869.47;1656179;85;21081;-52
2022/11/11 07:52:36;;;;;;;11.38;9.80;;;;;;;14.86;61.04;102872.54;1652554;87;21100;-52
2022/11/11 07:55:22;;;;;;;12.10;9.70;;;;;;;14.81;60.91;102873.87;1650265;87;21837;-52
2022/11/11 07:58:08;;;;;;;12.25;9.80;;;;;;;14.78;60.98;102883.48;1656988;85;21089;-51
2022/11/11 08:00:54;;;;;;;12.03;9.33;;;;;;;14.73;60.96;102874.36;1652953;87;21021;-51
2022/11/11 08:03:48;;;;;;;13.55;10.68;;;;;;;14.71;61.15;102881.78;1653047;87;21100;-51
2022/11/11 08:06:25;;;;;;;13.60;10.93;;;;;;;14.71;61.16;102884.41;1652514;87;21060;-51
2022/11/11 08:09:10;;;;;;;13.65;11.40;;;;;;;14.71;61.16;102889.65;1638963;85;21103;-51
2022/11/11 08:14:59;;;;;;;14.45;11.10;;;;;;;14.69;61.21;102898.38;1652874;87;21085;-51
2022/11/11 08:17:46;;;;;;;11.75;10.55;;;;;;;14.69;61.22;102893.12;1652503;87;21044;-51
2022/11/11 08:20:31;;;;;;;12.45;11.15;;;;;;;14.68;61.03;102899.27;1652806;87;21078;-52
2022/11/11 08:23:21;;;;;;;11.90;10.60;;;;;;;14.65;61.15;102907.13;1645327;87;21171;-51
2022/11/11 08:26:05;;;;;;;11.28;9.78;;;;;;;14.65;61.15;102909.75;1652698;87;21086;-51
2022/11/11 08:28:52;;;;;;;12.93;10.72;;;;;;;14.65;61.14;102907.59;1650876;85;21084;-50
2022/11/11 08:31:38;;;;;;;10.80;9.43;;;;;;;14.65;61.04;102908.91;1652506;87;21029;-51
2022/11/11 08:34:23;;;;;;;11.68;10.50;;;;;;;14.63;60.92;102903.64;1654680;85;21045;-51
2022/11/11 08:37:08;;;;;;;11.43;10.20;;;;;;;14.62;60.67;102904.54;1652622;87;21044;-51
2022/11/11 08:39:54;;;;;;;10.95;9.85;;;;;;;14.58;60.81;102908.05;1652507;87;21060;-50
2022/11/11 08:42:40;;;;;;;12.95;10.10;;;;;;;14.56;60.75;102908.93;1652643;87;21041;-50
2022/11/11 08:45:26;;;;;;;12.13;10.93;;;;;;;14.55;60.74;102905.43;1647827;87;21040;-51
2022/11/11 08:48:12;;;;;;;11.12;9.90;;;;;;;14.53;60.73;102908.49;1648926;87;21057;-50
2022/11/11 08:50:58;;;;;;;13.48;10.45;;;;;;;14.51;60.61;102907.63;1631240;87;21084;-51
2022/11/11 08:53:43;;;;;;;12.45;10.50;;;;;;;14.49;60.53;102917.67;1635301;86;21113;-51
2022/11/11 08:56:28;;;;;;;11.55;10.32;;;;;;;14.47;60.66;102912.88;1643139;87;21032;-52
2022/11/11 08:59:13;;;;;;;13.00;11.70;;;;;;;14.46;60.65;102908.10;1645271;87;21544;-52
2022/11/11 09:01:58;;;;;;;12.40;11.10;;;;;;;14.48;60.72;102909.40;1637284;87;21040;-51
2022/11/11 09:04:43;;;;;;;11.40;10.30;;;;;;;14.46;60.66;102910.72;1651749;86;21049;-51
2022/11/11 09:07:28;;;;;;;11.93;10.75;;;;;;;14.46;60.73;102907.22;1633083;87;21100;-52
2022/11/11 09:10:14;;;;;;;13.60;10.82;;;;;;;14.47;60.79;102910.26;1634149;87;21571;-51
2022/11/11 09:13:01;;;;;;;12.50;10.70;;;;;;;14.49;60.73;102915.94;1635512;87;21049;-51
2022/11/11 09:15:46;;;;;;;12.30;10.53;;;;;;;14.52;60.70;102910.70;1652592;87;21044;-52
2022/11/11 09:18:31;;;;;;;12.18;10.80;;;;;;;14.57;60.67;102912.84;1652662;87;21572;-51
2022/11/11 09:21:16;;;;;;;15.13;12.00;;;;;;;14.61;60.70;102908.02;1630530;86;21688;-51
2022/11/11 09:24:02;;;;;;;13.10;11.60;;;;;;;14.68;60.50;102908.87;1616921;87;21104;-51
2022/11/11 09:26:49;;;;;;;11.95;10.75;;;;;;;14.73;60.46;102907.11;1636532;87;21096;-51
2022/11/11 09:29:35;;;;;;;12.10;10.60;;;;;;;14.78;60.19;102907.06;1582892;90;21130;-51
2022/11/11 09:32:20;;;;;;;12.58;11.30;;;;;;;14.81;60.19;102908.37;1619635;87;21067;-51
2022/11/11 09:35:07;;;;;;;12.98;11.38;;;;;;;14.85;60.08;102906.17;1596871;88;21060;-51
2022/11/11 09:37:56;;;;;;;12.82;11.33;;;;;;;14.88;59.90;102908.79;1618012;87;21147;-52
2022/11/11 09:41:02;;;;;;;12.07;10.70;;;;;;;14.91;59.83;102906.13;1575659;89;21103;-51
2022/11/11 09:43:59;;;;;;;13.83;12.13;;;;;;;14.93;59.78;102906.56;1594016;88;21091;-50
2022/11/11 09:47:01;;;;;;;11.22;10.13;;;;;;;14.97;59.58;102909.59;1582155;89;21216;-51
2022/11/11 09:50:01;;;;;;;13.50;12.10;;;;;;;14.94;59.46;102895.64;1594908;89;21082;-50
2022/11/11 09:53:15;;;;;;;12.10;10.90;;;;;;;14.93;59.44;102904.37;1597694;89;21074;-51
2022/11/11 09:56:10;;;;;;;11.83;10.63;;;;;;;14.92;59.37;102902.19;1593163;88;21578;-51
2022/11/11 09:59:06;;;;;;;12.80;11.15;;;;;;;14.94;59.38;102896.95;1584295;89;21104;-51
2022/11/11 10:01:54;;;;;;;12.63;11.33;;;;;;;14.94;59.35;102903.52;1574460;88;21771;-50
2022/11/11 10:04:53;;;;;;;12.53;11.03;;;;;;;14.94;59.39;102890.41;1583343;87;21067;-51
2022/11/11 10:07:59;;;;;;;12.63;11.33;;;;;;;14.96;59.37;102895.20;1587462;89;21574;-51
2022/11/11 10:10:48;;;;;;;15.78;13.20;;;;;;;14.94;59.40;102887.78;1583878;89;21076;-51
2022/11/11 10:13:36;;;;;;;15.90;12.63;;;;;;;14.95;59.44;102898.25;1578913;89;21178;-51
2022/11/11 10:16:58;;;;;;;12.45;11.30;;;;;;;14.86;59.67;102893.52;1578721;89;21122;-51
2022/11/11 10:20:12;;;;;;;13.90;11.48;;;;;;;14.91;59.66;102893.91;1574556;90;21047;-52
2022/11/11 10:23:05;;;;;;;12.90;11.60;;;;;;;14.94;59.63;102890.41;1570131;89;21054;-51
2022/11/11 10:25:55;;;;;;;14.73;12.28;;;;;;;14.94;59.69;102890.41;1533621;91;21103;-51
2022/11/11 10:28:44;;;;;;;12.55;11.35;;;;;;;14.93;59.69;102888.21;1565046;89;21092;-51
2022/11/11 10:31:29;;;;;;;12.23;11.03;;;;;;;14.94;59.72;102890.41;1576687;89;21045;-51
2022/11/11 10:34:15;;;;;;;12.18;10.98;;;;;;;14.94;59.76;102890.41;1570042;89;21578;-51
2022/11/11 10:37:02;;;;;;;11.75;10.65;;;;;;;14.94;59.91;102890.41;1586536;90;21066;-50
2022/11/11 10:40:13;;;;;;;12.40;11.20;;;;;;;14.98;59.99;102888.19;1594708;89;21677;-51
2022/11/11 10:42:58;;;;;;;12.85;11.55;;;;;;;14.98;60.05;102883.80;1594841;88;21102;-51
2022/11/11 10:45:57;;;;;;;13.40;12.00;;;;;;;15.02;60.20;102878.11;1605108;88;21133;-50
2022/11/11 10:48:51;;;;;;;16.42;12.65;;;;;;;15.04;60.18;102885.53;1483376;94;21116;-51
2022/11/11 10:51:44;;;;;;;12.73;11.53;;;;;;;15.04;60.32;102883.78;1474350;95;21173;-51
2022/11/11 10:54:41;;;;;;;12.70;11.25;;;;;;;15.06;60.30;102880.71;1398797;101;21141;-50
2022/11/11 10:57:43;;;;;;;13.65;11.90;;;;;;;15.06;60.40;102876.78;1403982;101;22983;-51
2022/11/11 11:00:30;;;;;;;13.13;11.43;;;;;;;15.06;60.45;102874.16;1423106;100;21664;-51
2022/11/11 11:03:25;;;;;;;13.15;11.85;;;;;;;15.10;60.52;102874.56;1449162;95;22200;-51
2022/11/11 11:06:15;;;;;;;12.25;10.98;;;;;;;15.10;60.55;102878.50;1474239;96;21157;-51
2022/11/11 11:09:24;;;;;;;12.33;11.10;;;;;;;15.10;60.69;102881.55;1477254;95;21101;-51
2022/11/11 11:12:38;;;;;;;12.93;11.65;;;;;;;15.08;60.77;102872.83;1468685;97;21570;-52
2022/11/11 11:15:26;;;;;;;12.43;11.05;;;;;;;15.09;60.94;102874.55;1431742;99;21199;-51
2022/11/11 11:18:13;;;;;;;14.40;11.65;;;;;;;15.09;60.94;102879.80;1405802;101;21195;-51
2022/11/11 11:21:03;;;;;;;13.08;11.78;;;;;;;15.07;61.02;102875.00;1425159;100;21216;-51
2022/11/11 11:23:48;;;;;;;13.43;12.07;;;;;;;15.07;61.00;102878.94;1401072;101;21160;-51
2022/11/11 11:26:46;;;;;;;14.30;12.93;;;;;;;15.05;61.02;102878.08;1413424;100;21181;-52
2022/11/11 11:29:41;;;;;;;16.37;12.68;;;;;;;15.01;61.11;102881.59;1407424;101;21156;-51
2022/11/11 11:32:28;;;;;;;14.03;12.55;;;;;;;14.97;61.29;102885.13;1425175;98;21099;-51
2022/11/11 11:35:45;;;;;;;12.35;11.00;;;;;;;14.96;61.44;102881.63;1432443;99;21177;-51
2022/11/11 11:38:45;;;;;;;13.45;12.05;;;;;;;14.94;61.47;102879.45;1441160;98;21125;-51
2022/11/11 11:41:49;;;;;;;13.72;12.18;;;;;;;14.94;61.62;102879.92;1390042;103;21195;-51
2022/11/11 11:44:35;;;;;;;13.90;11.78;;;;;;;14.93;61.65;102876.84;1363348;105;21198;-52
2022/11/11 11:47:38;;;;;;;13.55;12.25;;;;;;;14.94;61.74;102877.30;1366114;104;21154;-51
2022/11/11 11:50:50;;;;;;;13.15;11.85;;;;;;;14.96;61.78;102876.84;1401283;97;21228;-51
2022/11/11 11:53:46;;;;;;;14.40;12.95;;;;;;;14.98;61.83;102881.64;1543431;92;21086;-51
2022/11/11 11:56:38;;;;;;;14.20;12.80;;;;;;;14.99;61.75;102884.23;1543644;93;21137;-52
2022/11/11 11:59:52;;;;;;;17.70;13.90;;;;;;;15.00;61.85;102885.12;1545385;93;21581;-51
2022/11/11 12:03:11;;;;;;;14.98;13.10;;;;;;;14.99;61.95;102885.98;1526169;93;21081;-52
2022/11/11 12:06:32;;;;;;;14.95;13.40;;;;;;;15.00;62.04;102889.89;1532094;93;21104;-51
2022/11/11 12:09:40;;;;;;;14.98;12.70;;;;;;;15.00;62.12;102893.83;1525457;93;21086;-51
2022/11/11 12:12:38;;;;;;;15.53;12.80;;;;;;;15.01;62.09;102897.33;1493133;95;21564;-53
2022/11/11 12:15:45;;;;;;;16.87;14.18;;;;;;;14.99;62.23;102888.61;1419728;100;21144;-51
2022/11/11 12:18:58;;;;;;;16.17;13.25;;;;;;;14.99;62.38;102896.47;1419832;101;21600;-51
2022/11/11 12:22:26;;;;;;;15.45;13.88;;;;;;;15.03;62.41;102899.50;1414967;101;21113;-52
2022/11/11 12:25:37;;;;;;;15.00;13.48;;;;;;;15.07;62.42;102899.91;1419696;101;21157;-51
2022/11/11 12:29:04;;;;;;;14.13;12.65;;;;;;;15.08;62.53;102899.05;1409509;101;21128;-52
2022/11/11 12:32:11;;;;;;;15.93;14.25;;;;;;;15.10;62.60;102898.59;1399336;101;21212;-52
2022/11/11 12:35:33;;;;;;;15.03;13.43;;;;;;;15.10;62.73;102901.22;1386013;102;21124;-52
2022/11/11 12:39:12;;;;;;;17.42;14.75;;;;;;;15.12;62.73;102895.09;1377911;102;21670;-51
2022/11/11 12:42:27;;;;;;;14.63;13.03;;;;;;;15.16;62.71;102899.87;1390080;102;21694;-52
2022/11/11 12:45:53;;;;;;;13.90;12.40;;;;;;;15.22;62.55;102898.52;1409877;101;21103;-52
2022/11/11 12:49:10;;;;;;;14.10;12.40;;;;;;;15.25;62.48;102906.38;1411082;99;21124;-52
2022/11/11 12:52:29;;;;;;;13.78;12.45;;;;;;;15.25;62.37;102907.69;1440426;97;21163;-51
2022/11/11 12:55:52;;;;;;;14.28;12.78;;;;;;;15.25;62.34;102907.22;1457239;97;21119;-52
2022/11/11 12:59:01;;;;;;;12.98;11.68;;;;;;;15.24;62.39;102916.42;1452475;98;21160;-52
2022/11/11 13:02:12;;;;;;;18.07;13.00;;;;;;;15.25;62.40;102914.24;1462982;96;21203;-52
2022/11/11 13:05:41;;;;;;;14.10;12.73;;;;;;;15.26;62.47;102913.34;1461899;96;21610;-52
2022/11/11 13:09:02;;;;;;;13.50;12.07;;;;;;;15.29;62.40;102913.34;1476177;97;21107;-52
2022/11/11 13:11:56;;;;;;;14.20;12.80;;;;;;;15.30;62.42;102913.75;1554887;85;21052;-52
2022/11/11 13:15:02;;;;;;;13.60;12.10;;;;;;;15.29;62.54;102908.94;1648338;86;21066;-52
2022/11/11 13:17:50;;;;;;;12.75;11.45;;;;;;;15.31;62.50;102915.51;1682764;83;21098;-53
2022/11/11 13:20:55;;;;;;;13.93;12.40;;;;;;;15.32;62.50;102914.17;1691722;83;21003;-52
2022/11/11 13:23:40;;;;;;;13.43;12.05;;;;;;;15.32;62.49;102914.17;1662153;85;21060;-53
2022/11/11 13:26:39;;;;;;;12.15;10.98;;;;;;;15.33;62.62;102915.05;1696236;83;21087;-52
2022/11/11 13:30:09;;;;;;;11.15;10.05;;;;;;;15.34;62.62;102915.03;1692272;83;21538;-52
2022/11/11 13:33:17;;;;;;;10.85;9.75;;;;;;;15.36;62.44;102921.58;1707003;84;21082;-52
2022/11/11 13:36:03;;;;;;;11.75;9.50;;;;;;;15.35;62.23;102915.91;1615271;87;21070;-52
2022/11/11 13:38:51;;;;;;;10.38;9.28;;;;;;;15.39;62.24;102916.32;1597372;88;21134;-51
2022/11/11 13:41:40;;;;;;;12.23;10.13;;;;;;;15.44;61.97;102919.36;1574651;89;21072;-51
2022/11/11 13:44:32;;;;;;;12.75;11.35;;;;;;;15.48;61.77;102923.29;1584587;89;21120;-51
2022/11/11 13:47:22;;;;;;;11.75;10.50;;;;;;;15.48;61.56;102924.14;1534451;92;21110;-52
2022/11/11 13:50:35;;;;;;;14.38;12.13;;;;;;;15.48;61.65;102924.14;1532779;92;21608;-52
2022/11/11 13:53:31;;;;;;;12.98;11.60;;;;;;;15.50;61.54;102922.38;1539809;93;21561;-51
2022/11/11 13:56:28;;;;;;;13.75;9.90;;;;;;;15.54;61.46;102921.46;1519455;93;21233;-51
2022/11/11 13:59:24;;;;;;;12.43;10.13;;;;;;;15.58;61.30;102928.42;1524455;94;21200;-52
2022/11/11 14:02:21;;;;;;;10.58;9.48;;;;;;;15.58;61.10;102923.17;1492771;96;21130;-51
2022/11/11 14:05:16;;;;;;;14.70;10.90;;;;;;;15.58;61.13;102932.83;1520848;94;21148;-51
2022/11/11 14:08:02;;;;;;;12.47;10.93;;;;;;;15.60;61.19;102931.91;1491269;94;21126;-51
2022/11/11 14:10:51;;;;;;;16.02;12.73;;;;;;;15.64;61.04;102938.02;1481836;96;21110;-51
2022/11/11 14:13:37;;;;;;;13.88;12.47;;;;;;;15.65;60.92;102931.45;1485989;94;21096;-51
2022/11/11 14:16:38;;;;;;;13.22;11.83;;;;;;;15.65;60.96;102930.12;1499474;94;21143;-51
2022/11/11 14:19:29;;;;;;;12.65;11.35;;;;;;;15.69;60.97;102933.16;1497092;92;21141;-51
2022/11/11 14:22:32;;;;;;;12.55;10.98;;;;;;;15.72;60.87;102930.52;1484945;96;21134;-51
2022/11/11 14:25:26;;;;;;;12.28;10.98;;;;;;;15.74;60.75;102932.69;1448314;98;21179;-52